sensor_id;sensor_type;location;lat;lon;timestamp;temperature;humidity
40151;DHT22;25866;52.420;10.640;2023-06-24T00:02:02;15.30;99.90
40151;DHT22;25866;52.420;10.640;2023-06-24T00:04:27;15.20;99.90
40151;DHT22;25866;52.420;10.640;2023-06-24T00:06:53;15.20;99.90
40151;DHT22;25866;52.420;10.640;2023-06-24T00:09:21;15.20;99.90
40151;DHT22;25866;52.420;10.640;2023-06-24T00:11:47;15.10;99.90
40151;DHT22;25866;52.420;10.640;2023-06-24T00:14:13;15.10;99.90
40151;DHT22;25866;52.420;10.640;2023-06-24T00:16:40;15.00;99.90
40151;DHT22;25866;52.420;10.640;2023-06-24T00:19:07;14.90;99.90
40151;DHT22;25866;52.420;10.640;2023-06-24T00:21:33;15.00;99.90
40151;DHT22;25866;52.420;10.640;2023-06-24T00:24:00;14.90;99.90
40151;DHT22;25866;52.420;10.640;2023-06-24T00:26:30;14.90;99.90
40151;DHT22;25866;52.420;10.640;2023-06-24T00:28:58;14.90;99.90
40151;DHT22;25866;52.420;10.640;2023-06-24T00:31:24;14.90;99.90
40151;DHT22;25866;52.420;10.640;2023-06-24T00:33:50;14.90;99.90
40151;DHT22;25866;52.420;10.640;2023-06-24T00:36:17;14.90;99.90
40151;DHT22;25866;52.420;10.640;2023-06-24T00:38:43;14.90;99.90
40151;DHT22;25866;52.420;10.640;2023-06-24T00:41:09;14.90;99.90
40151;DHT22;25866;52.420;10.640;2023-06-24T00:43:35;14.90;99.90
40151;DHT22;25866;52.420;10.640;2023-06-24T00:46:01;14.90;99.90
40151;DHT22;25866;52.420;10.640;2023-06-24T00:48:28;14.80;99.90
40151;DHT22;25866;52.420;10.640;2023-06-24T00:50:54;14.80;99.90
40151;DHT22;25866;52.420;10.640;2023-06-24T00:53:19;14.80;99.90
40151;DHT22;25866;52.420;10.640;2023-06-24T00:55:47;14.80;99.90
40151;DHT22;25866;52.420;10.640;2023-06-24T00:58:13;14.90;99.90
40151;DHT22;25866;52.420;10.640;2023-06-24T01:00:43;14.80;99.90
40151;DHT22;25866;52.420;10.640;2023-06-24T01:03:11;14.80;99.90
40151;DHT22;25866;52.420;10.640;2023-06-24T01:05:42;14.80;99.90
40151;DHT22;25866;52.420;10.640;2023-06-24T01:08:08;14.80;99.90
40151;DHT22;25866;52.420;10.640;2023-06-24T01:10:35;14.70;99.90
40151;DHT22;25866;52.420;10.640;2023-06-24T01:13:01;14.70;99.90
40151;DHT22;25866;52.420;10.640;2023-06-24T01:15:26;14.70;99.90
40151;DHT22;25866;52.420;10.640;2023-06-24T01:18:21;14.70;99.90
40151;DHT22;25866;52.420;10.640;2023-06-24T01:20:59;14.70;99.90
40151;DHT22;25866;52.420;10.640;2023-06-24T01:29:42;14.60;99.90
40151;DHT22;25866;52.420;10.640;2023-06-24T01:32:34;14.70;99.90
40151;DHT22;25866;52.420;10.640;2023-06-24T01:35:16;14.60;99.90
40151;DHT22;25866;52.420;10.640;2023-06-24T01:37:48;14.60;99.90
40151;DHT22;25866;52.420;10.640;2023-06-24T01:40:33;14.60;99.90
40151;DHT22;25866;52.420;10.640;2023-06-24T01:43:01;14.50;99.90
40151;DHT22;25866;52.420;10.640;2023-06-24T01:45:32;14.50;99.90
40151;DHT22;25866;52.420;10.640;2023-06-24T01:48:15;14.50;99.90
40151;DHT22;25866;52.420;10.640;2023-06-24T01:51:00;14.50;99.90
40151;DHT22;25866;52.420;10.640;2023-06-24T01:53:34;14.40;99.90
40151;DHT22;25866;52.420;10.640;2023-06-24T01:56:01;14.40;99.90
40151;DHT22;25866;52.420;10.640;2023-06-24T01:58:29;14.40;99.90
40151;DHT22;25866;52.420;10.640;2023-06-24T02:00:56;14.40;99.90
40151;DHT22;25866;52.420;10.640;2023-06-24T02:03:23;14.40;99.90
40151;DHT22;25866;52.420;10.640;2023-06-24T02:05:51;14.30;99.90
40151;DHT22;25866;52.420;10.640;2023-06-24T02:08:18;14.20;99.90
40151;DHT22;25866;52.420;10.640;2023-06-24T02:10:46;14.20;99.90
40151;DHT22;25866;52.420;10.640;2023-06-24T02:13:13;14.20;99.90
40151;DHT22;25866;52.420;10.640;2023-06-24T02:15:39;14.20;99.90
40151;DHT22;25866;52.420;10.640;2023-06-24T02:18:07;14.20;99.90
40151;DHT22;25866;52.420;10.640;2023-06-24T02:20:34;14.20;99.90
40151;DHT22;25866;52.420;10.640;2023-06-24T02:23:02;14.10;99.90
40151;DHT22;25866;52.420;10.640;2023-06-24T02:25:30;14.20;99.90
40151;DHT22;25866;52.420;10.640;2023-06-24T02:27:57;14.10;99.90
40151;DHT22;25866;52.420;10.640;2023-06-24T02:30:23;14.10;99.90
40151;DHT22;25866;52.420;10.640;2023-06-24T02:32:50;14.10;99.90
40151;DHT22;25866;52.420;10.640;2023-06-24T02:35:16;14.10;99.90
40151;DHT22;25866;52.420;10.640;2023-06-24T02:37:42;14.10;99.90
40151;DHT22;25866;52.420;10.640;2023-06-24T02:40:09;14.10;99.90
40151;DHT22;25866;52.420;10.640;2023-06-24T02:42:35;14.10;99.90
40151;DHT22;25866;52.420;10.640;2023-06-24T02:45:02;14.10;99.90
40151;DHT22;25866;52.420;10.640;2023-06-24T02:47:29;14.10;99.90
40151;DHT22;25866;52.420;10.640;2023-06-24T02:49:56;14.10;99.90
40151;DHT22;25866;52.420;10.640;2023-06-24T02:52:23;14.00;99.90
40151;DHT22;25866;52.420;10.640;2023-06-24T02:54:49;13.90;99.90
40151;DHT22;25866;52.420;10.640;2023-06-24T02:57:15;13.90;99.90
40151;DHT22;25866;52.420;10.640;2023-06-24T02:59:41;13.90;99.90
40151;DHT22;25866;52.420;10.640;2023-06-24T03:02:08;14.00;99.90
40151;DHT22;25866;52.420;10.640;2023-06-24T03:04:34;14.00;99.90
40151;DHT22;25866;52.420;10.640;2023-06-24T03:07:00;13.90;99.90
40151;DHT22;25866;52.420;10.640;2023-06-24T03:09:28;14.00;99.90
40151;DHT22;25866;52.420;10.640;2023-06-24T03:11:53;14.00;99.90
40151;DHT22;25866;52.420;10.640;2023-06-24T03:14:19;14.00;99.90
40151;DHT22;25866;52.420;10.640;2023-06-24T03:16:45;14.00;99.90
40151;DHT22;25866;52.420;10.640;2023-06-24T03:19:10;14.00;99.90
40151;DHT22;25866;52.420;10.640;2023-06-24T03:21:36;14.00;99.90
40151;DHT22;25866;52.420;10.640;2023-06-24T03:24:02;14.00;99.90
40151;DHT22;25866;52.420;10.640;2023-06-24T03:26:32;14.00;99.90
40151;DHT22;25866;52.420;10.640;2023-06-24T03:28:58;14.00;99.90
40151;DHT22;25866;52.420;10.640;2023-06-24T03:31:24;14.00;99.90
40151;DHT22;25866;52.420;10.640;2023-06-24T03:33:50;14.00;99.90
40151;DHT22;25866;52.420;10.640;2023-06-24T03:36:15;14.00;99.90
40151;DHT22;25866;52.420;10.640;2023-06-24T03:38:41;14.00;99.90
40151;DHT22;25866;52.420;10.640;2023-06-24T03:41:07;14.00;99.90
40151;DHT22;25866;52.420;10.640;2023-06-24T03:43:32;14.10;99.90
40151;DHT22;25866;52.420;10.640;2023-06-24T03:45:58;14.10;99.90
40151;DHT22;25866;52.420;10.640;2023-06-24T03:48:25;14.10;99.90
40151;DHT22;25866;52.420;10.640;2023-06-24T03:50:51;14.10;99.90
40151;DHT22;25866;52.420;10.640;2023-06-24T03:53:17;14.10;99.90
40151;DHT22;25866;52.420;10.640;2023-06-24T03:55:43;14.10;99.90
40151;DHT22;25866;52.420;10.640;2023-06-24T03:58:08;14.10;99.90
40151;DHT22;25866;52.420;10.640;2023-06-24T04:00:34;14.10;99.90
40151;DHT22;25866;52.420;10.640;2023-06-24T04:03:01;14.10;99.90
40151;DHT22;25866;52.420;10.640;2023-06-24T04:05:27;14.10;99.90
40151;DHT22;25866;52.420;10.640;2023-06-24T04:07:53;14.10;99.90
40151;DHT22;25866;52.420;10.640;2023-06-24T04:10:19;14.10;99.90
40151;DHT22;25866;52.420;10.640;2023-06-24T04:12:48;14.20;99.90
40151;DHT22;25866;52.420;10.640;2023-06-24T04:15:13;14.20;99.90
40151;DHT22;25866;52.420;10.640;2023-06-24T04:17:39;14.20;99.90
40151;DHT22;25866;52.420;10.640;2023-06-24T04:20:05;14.20;99.90
40151;DHT22;25866;52.420;10.640;2023-06-24T04:22:37;14.30;99.90
40151;DHT22;25866;52.420;10.640;2023-06-24T04:25:07;14.30;99.90
40151;DHT22;25866;52.420;10.640;2023-06-24T04:27:34;14.30;99.90
40151;DHT22;25866;52.420;10.640;2023-06-24T04:30:00;14.30;99.90
40151;DHT22;25866;52.420;10.640;2023-06-24T04:32:26;14.30;99.90
40151;DHT22;25866;52.420;10.640;2023-06-24T04:34:52;14.40;99.90
40151;DHT22;25866;52.420;10.640;2023-06-24T04:37:18;14.50;99.90
40151;DHT22;25866;52.420;10.640;2023-06-24T04:39:44;14.50;99.90
40151;DHT22;25866;52.420;10.640;2023-06-24T04:42:11;14.60;99.90
40151;DHT22;25866;52.420;10.640;2023-06-24T04:44:37;14.80;99.90
40151;DHT22;25866;52.420;10.640;2023-06-24T04:47:03;14.90;99.90
40151;DHT22;25866;52.420;10.640;2023-06-24T04:49:28;15.10;99.90
40151;DHT22;25866;52.420;10.640;2023-06-24T04:51:54;15.20;99.90
40151;DHT22;25866;52.420;10.640;2023-06-24T04:54:20;15.40;99.90
40151;DHT22;25866;52.420;10.640;2023-06-24T04:56:45;15.50;99.90
40151;DHT22;25866;52.420;10.640;2023-06-24T04:59:14;15.70;99.90
40151;DHT22;25866;52.420;10.640;2023-06-24T05:01:40;15.70;99.90
40151;DHT22;25866;52.420;10.640;2023-06-24T05:04:05;15.80;99.90
40151;DHT22;25866;52.420;10.640;2023-06-24T05:06:31;15.90;99.90
40151;DHT22;25866;52.420;10.640;2023-06-24T05:08:57;15.90;99.90
40151;DHT22;25866;52.420;10.640;2023-06-24T05:11:22;15.90;99.90
40151;DHT22;25866;52.420;10.640;2023-06-24T05:13:48;15.90;99.90
40151;DHT22;25866;52.420;10.640;2023-06-24T05:16:14;15.90;99.90
40151;DHT22;25866;52.420;10.640;2023-06-24T05:18:39;16.00;99.90
40151;DHT22;25866;52.420;10.640;2023-06-24T05:21:05;16.00;99.90
40151;DHT22;25866;52.420;10.640;2023-06-24T05:23:31;16.00;99.90
40151;DHT22;25866;52.420;10.640;2023-06-24T05:25:59;16.10;99.90
40151;DHT22;25866;52.420;10.640;2023-06-24T05:28:27;16.10;99.90
40151;DHT22;25866;52.420;10.640;2023-06-24T05:31:05;16.10;99.90
40151;DHT22;25866;52.420;10.640;2023-06-24T05:33:31;16.20;99.90
40151;DHT22;25866;52.420;10.640;2023-06-24T05:35:57;16.30;99.90
40151;DHT22;25866;52.420;10.640;2023-06-24T05:38:23;16.30;99.90
40151;DHT22;25866;52.420;10.640;2023-06-24T05:40:48;16.30;99.90
40151;DHT22;25866;52.420;10.640;2023-06-24T05:43:14;16.40;99.90
40151;DHT22;25866;52.420;10.640;2023-06-24T05:45:40;16.40;99.90
40151;DHT22;25866;52.420;10.640;2023-06-24T05:48:06;16.40;99.90
40151;DHT22;25866;52.420;10.640;2023-06-24T05:50:31;16.40;99.90
40151;DHT22;25866;52.420;10.640;2023-06-24T05:52:58;16.50;99.90
40151;DHT22;25866;52.420;10.640;2023-06-24T05:55:26;16.50;99.90
40151;DHT22;25866;52.420;10.640;2023-06-24T05:57:52;16.50;99.90
40151;DHT22;25866;52.420;10.640;2023-06-24T06:00:18;16.60;99.90
40151;DHT22;25866;52.420;10.640;2023-06-24T06:02:44;16.60;99.90
40151;DHT22;25866;52.420;10.640;2023-06-24T06:05:12;16.60;99.90
40151;DHT22;25866;52.420;10.640;2023-06-24T06:07:38;16.70;99.90
40151;DHT22;25866;52.420;10.640;2023-06-24T06:10:07;16.70;99.90
40151;DHT22;25866;52.420;10.640;2023-06-24T06:12:33;16.70;99.90
40151;DHT22;25866;52.420;10.640;2023-06-24T06:14:59;16.80;99.90
40151;DHT22;25866;52.420;10.640;2023-06-24T06:17:25;16.80;99.90
40151;DHT22;25866;52.420;10.640;2023-06-24T06:19:51;16.90;99.90
40151;DHT22;25866;52.420;10.640;2023-06-24T06:22:16;16.90;99.90
40151;DHT22;25866;52.420;10.640;2023-06-24T06:24:43;16.80;99.90
40151;DHT22;25866;52.420;10.640;2023-06-24T06:27:13;16.90;99.90
40151;DHT22;25866;52.420;10.640;2023-06-24T06:29:38;16.90;99.90
40151;DHT22;25866;52.420;10.640;2023-06-24T06:32:04;16.90;99.90
40151;DHT22;25866;52.420;10.640;2023-06-24T06:34:30;16.90;99.90
40151;DHT22;25866;52.420;10.640;2023-06-24T06:36:56;17.00;99.90
40151;DHT22;25866;52.420;10.640;2023-06-24T06:39:21;17.00;99.90
40151;DHT22;25866;52.420;10.640;2023-06-24T06:41:47;17.10;99.90
40151;DHT22;25866;52.420;10.640;2023-06-24T06:44:16;17.20;99.90
40151;DHT22;25866;52.420;10.640;2023-06-24T06:46:41;17.20;99.90
40151;DHT22;25866;52.420;10.640;2023-06-24T06:49:07;17.20;99.90
40151;DHT22;25866;52.420;10.640;2023-06-24T06:51:32;17.30;99.90
40151;DHT22;25866;52.420;10.640;2023-06-24T06:54:00;17.60;99.90
40151;DHT22;25866;52.420;10.640;2023-06-24T06:56:26;17.60;99.90
40151;DHT22;25866;52.420;10.640;2023-06-24T06:58:52;17.70;99.90
40151;DHT22;25866;52.420;10.640;2023-06-24T07:01:18;17.70;99.90
40151;DHT22;25866;52.420;10.640;2023-06-24T07:03:44;17.80;99.90
40151;DHT22;25866;52.420;10.640;2023-06-24T07:06:12;17.70;99.90
40151;DHT22;25866;52.420;10.640;2023-06-24T07:08:38;17.70;99.90
40151;DHT22;25866;52.420;10.640;2023-06-24T07:11:03;17.80;99.90
40151;DHT22;25866;52.420;10.640;2023-06-24T07:13:29;18.00;99.90
40151;DHT22;25866;52.420;10.640;2023-06-24T07:15:58;18.10;99.90
40151;DHT22;25866;52.420;10.640;2023-06-24T07:18:24;18.30;99.90
40151;DHT22;25866;52.420;10.640;2023-06-24T07:20:49;18.50;99.90
40151;DHT22;25866;52.420;10.640;2023-06-24T07:23:15;18.60;99.90
40151;DHT22;25866;52.420;10.640;2023-06-24T07:25:42;18.60;99.90
40151;DHT22;25866;52.420;10.640;2023-06-24T07:28:07;18.70;99.90
40151;DHT22;25866;52.420;10.640;2023-06-24T07:30:33;19.00;99.90
40151;DHT22;25866;52.420;10.640;2023-06-24T07:33:00;19.20;99.90
40151;DHT22;25866;52.420;10.640;2023-06-24T07:35:32;19.20;99.90
40151;DHT22;25866;52.420;10.640;2023-06-24T07:37:59;19.10;99.90
40151;DHT22;25866;52.420;10.640;2023-06-24T07:40:25;19.20;99.90
40151;DHT22;25866;52.420;10.640;2023-06-24T07:42:50;19.40;99.90
40151;DHT22;25866;52.420;10.640;2023-06-24T07:45:21;19.50;99.90
40151;DHT22;25866;52.420;10.640;2023-06-24T07:47:47;19.50;99.90
40151;DHT22;25866;52.420;10.640;2023-06-24T07:50:13;19.40;99.90
40151;DHT22;25866;52.420;10.640;2023-06-24T07:52:38;19.30;99.90
40151;DHT22;25866;52.420;10.640;2023-06-24T07:55:07;19.30;99.90
40151;DHT22;25866;52.420;10.640;2023-06-24T07:57:33;19.20;99.90
40151;DHT22;25866;52.420;10.640;2023-06-24T07:59:59;19.30;99.90
40151;DHT22;25866;52.420;10.640;2023-06-24T08:02:24;19.50;99.90
40151;DHT22;25866;52.420;10.640;2023-06-24T08:04:52;19.70;99.90
40151;DHT22;25866;52.420;10.640;2023-06-24T08:07:18;20.00;99.90
40151;DHT22;25866;52.420;10.640;2023-06-24T08:09:44;20.00;99.90
40151;DHT22;25866;52.420;10.640;2023-06-24T08:12:09;20.10;99.90
40151;DHT22;25866;52.420;10.640;2023-06-24T08:14:42;20.10;99.90
40151;DHT22;25866;52.420;10.640;2023-06-24T08:17:07;20.20;99.90
40151;DHT22;25866;52.420;10.640;2023-06-24T08:19:33;20.40;99.90
40151;DHT22;25866;52.420;10.640;2023-06-24T08:21:59;20.50;99.90
40151;DHT22;25866;52.420;10.640;2023-06-24T08:24:24;20.60;99.90
40151;DHT22;25866;52.420;10.640;2023-06-24T08:26:50;20.60;99.90
40151;DHT22;25866;52.420;10.640;2023-06-24T08:29:16;20.80;99.90
40151;DHT22;25866;52.420;10.640;2023-06-24T08:31:41;20.90;99.90
40151;DHT22;25866;52.420;10.640;2023-06-24T08:34:07;20.90;99.90
40151;DHT22;25866;52.420;10.640;2023-06-24T08:36:35;20.90;99.90
40151;DHT22;25866;52.420;10.640;2023-06-24T08:39:03;21.00;99.90
40151;DHT22;25866;52.420;10.640;2023-06-24T08:41:28;21.10;99.90
40151;DHT22;25866;52.420;10.640;2023-06-24T08:43:54;21.00;99.90
40151;DHT22;25866;52.420;10.640;2023-06-24T08:46:24;21.00;99.90
40151;DHT22;25866;52.420;10.640;2023-06-24T08:49:19;21.10;99.90
40151;DHT22;25866;52.420;10.640;2023-06-24T08:51:41;21.20;99.90
40151;DHT22;25866;52.420;10.640;2023-06-24T08:54:09;21.30;99.90
40151;DHT22;25866;52.420;10.640;2023-06-24T08:56:37;21.40;99.90
40151;DHT22;25866;52.420;10.640;2023-06-24T08:59:05;21.50;99.90
40151;DHT22;25866;52.420;10.640;2023-06-24T09:01:31;21.60;99.90
40151;DHT22;25866;52.420;10.640;2023-06-24T09:03:57;21.60;99.90
40151;DHT22;25866;52.420;10.640;2023-06-24T09:06:31;21.60;99.90
40151;DHT22;25866;52.420;10.640;2023-06-24T09:08:57;21.60;99.90
40151;DHT22;25866;52.420;10.640;2023-06-24T09:11:28;21.60;99.90
40151;DHT22;25866;52.420;10.640;2023-06-24T09:14:00;21.70;99.90
40151;DHT22;25866;52.420;10.640;2023-06-24T09:16:26;21.80;99.90
40151;DHT22;25866;52.420;10.640;2023-06-24T09:18:53;21.80;99.90
40151;DHT22;25866;52.420;10.640;2023-06-24T09:21:23;21.90;99.90
40151;DHT22;25866;52.420;10.640;2023-06-24T09:23:58;22.00;99.90
40151;DHT22;25866;52.420;10.640;2023-06-24T09:26:28;22.20;99.90
40151;DHT22;25866;52.420;10.640;2023-06-24T09:28:57;22.10;99.90
40151;DHT22;25866;52.420;10.640;2023-06-24T09:31:23;22.10;99.90
40151;DHT22;25866;52.420;10.640;2023-06-24T09:33:49;22.10;99.90
40151;DHT22;25866;52.420;10.640;2023-06-24T09:36:24;22.10;99.90
40151;DHT22;25866;52.420;10.640;2023-06-24T09:38:50;22.30;99.90
40151;DHT22;25866;52.420;10.640;2023-06-24T09:41:16;22.40;99.90
40151;DHT22;25866;52.420;10.640;2023-06-24T09:43:43;22.40;99.90
40151;DHT22;25866;52.420;10.640;2023-06-24T09:46:14;22.50;99.90
40151;DHT22;25866;52.420;10.640;2023-06-24T09:48:40;22.50;99.90
40151;DHT22;25866;52.420;10.640;2023-06-24T09:51:05;22.60;99.90
40151;DHT22;25866;52.420;10.640;2023-06-24T09:53:33;22.80;99.90
40151;DHT22;25866;52.420;10.640;2023-06-24T09:56:08;22.80;99.90
40151;DHT22;25866;52.420;10.640;2023-06-24T09:58:36;22.80;99.90
40151;DHT22;25866;52.420;10.640;2023-06-24T10:01:04;22.90;99.90
40151;DHT22;25866;52.420;10.640;2023-06-24T10:03:32;23.00;99.90
40151;DHT22;25866;52.420;10.640;2023-06-24T10:06:01;23.10;99.90
40151;DHT22;25866;52.420;10.640;2023-06-24T10:08:28;23.10;99.90
40151;DHT22;25866;52.420;10.640;2023-06-24T10:10:54;23.20;99.90
40151;DHT22;25866;52.420;10.640;2023-06-24T10:13:20;23.20;99.90
40151;DHT22;25866;52.420;10.640;2023-06-24T10:15:46;23.30;99.90
40151;DHT22;25866;52.420;10.640;2023-06-24T10:20:56;23.30;99.90
40151;DHT22;25866;52.420;10.640;2023-06-24T10:23:23;23.30;99.90
40151;DHT22;25866;52.420;10.640;2023-06-24T10:25:48;23.30;99.90
40151;DHT22;25866;52.420;10.640;2023-06-24T10:28:14;23.40;99.90
40151;DHT22;25866;52.420;10.640;2023-06-24T10:30:54;23.40;99.90
40151;DHT22;25866;52.420;10.640;2023-06-24T10:33:19;23.50;99.90
40151;DHT22;25866;52.420;10.640;2023-06-24T10:35:45;23.70;99.90
40151;DHT22;25866;52.420;10.640;2023-06-24T10:38:11;23.80;99.90
40151;DHT22;25866;52.420;10.640;2023-06-24T10:40:42;23.80;99.90
40151;DHT22;25866;52.420;10.640;2023-06-24T10:45:50;23.90;99.90
40151;DHT22;25866;52.420;10.640;2023-06-24T10:48:17;23.90;99.90
40151;DHT22;25866;52.420;10.640;2023-06-24T10:50:45;24.00;99.90
40151;DHT22;25866;52.420;10.640;2023-06-24T10:53:12;24.00;99.90
40151;DHT22;25866;52.420;10.640;2023-06-24T10:55:39;24.10;99.90
40151;DHT22;25866;52.420;10.640;2023-06-24T10:58:09;24.20;99.90
40151;DHT22;25866;52.420;10.640;2023-06-24T11:00:37;24.20;99.90
40151;DHT22;25866;52.420;10.640;2023-06-24T11:05:38;24.40;99.90
40151;DHT22;25866;52.420;10.640;2023-06-24T11:08:06;24.50;99.90
40151;DHT22;25866;52.420;10.640;2023-06-24T11:10:32;24.40;99.90
40151;DHT22;25866;52.420;10.640;2023-06-24T11:13:05;24.40;99.90
40151;DHT22;25866;52.420;10.640;2023-06-24T11:15:32;24.50;99.90
40151;DHT22;25866;52.420;10.640;2023-06-24T11:18:10;24.50;99.90
40151;DHT22;25866;52.420;10.640;2023-06-24T11:20:39;24.60;99.90
40151;DHT22;25866;52.420;10.640;2023-06-24T11:23:10;24.60;99.90
40151;DHT22;25866;52.420;10.640;2023-06-24T11:25:43;24.60;99.90
40151;DHT22;25866;52.420;10.640;2023-06-24T11:28:19;24.70;99.90
40151;DHT22;25866;52.420;10.640;2023-06-24T11:30:44;25.00;99.90
40151;DHT22;25866;52.420;10.640;2023-06-24T11:33:10;25.20;99.90
40151;DHT22;25866;52.420;10.640;2023-06-24T11:35:36;25.30;99.90
40151;DHT22;25866;52.420;10.640;2023-06-24T11:38:03;25.20;99.90
40151;DHT22;25866;52.420;10.640;2023-06-24T11:40:31;25.20;99.90
40151;DHT22;25866;52.420;10.640;2023-06-24T11:43:00;25.20;99.70
40151;DHT22;25866;52.420;10.640;2023-06-24T11:45:25;25.40;99.90
40151;DHT22;25866;52.420;10.640;2023-06-24T11:47:51;25.30;99.90
40151;DHT22;25866;52.420;10.640;2023-06-24T11:50:18;25.30;99.90
40151;DHT22;25866;52.420;10.640;2023-06-24T11:52:44;25.40;99.90
40151;DHT22;25866;52.420;10.640;2023-06-24T11:58:02;25.60;99.90
40151;DHT22;25866;52.420;10.640;2023-06-24T12:00:32;25.60;98.40
40151;DHT22;25866;52.420;10.640;2023-06-24T12:03:00;25.60;98.10
40151;DHT22;25866;52.420;10.640;2023-06-24T12:05:34;25.80;99.00
40151;DHT22;25866;52.420;10.640;2023-06-24T12:08:02;25.60;99.90
40151;DHT22;25866;52.420;10.640;2023-06-24T12:10:29;25.60;99.90
40151;DHT22;25866;52.420;10.640;2023-06-24T12:12:56;25.60;99.40
40151;DHT22;25866;52.420;10.640;2023-06-24T12:15:23;25.50;99.70
40151;DHT22;25866;52.420;10.640;2023-06-24T12:17:50;25.10;99.20
40151;DHT22;25866;52.420;10.640;2023-06-24T12:20:15;24.70;99.90
40151;DHT22;25866;52.420;10.640;2023-06-24T12:22:42;24.40;99.90
40151;DHT22;25866;52.420;10.640;2023-06-24T12:25:08;24.40;99.90
40151;DHT22;25866;52.420;10.640;2023-06-24T12:27:35;24.60;99.90
40151;DHT22;25866;52.420;10.640;2023-06-24T12:30:01;25.00;99.90
40151;DHT22;25866;52.420;10.640;2023-06-24T12:32:27;25.30;98.90
40151;DHT22;25866;52.420;10.640;2023-06-24T12:34:53;25.20;99.90
40151;DHT22;25866;52.420;10.640;2023-06-24T12:37:19;25.10;99.90
40151;DHT22;25866;52.420;10.640;2023-06-24T12:39:45;25.00;99.90
40151;DHT22;25866;52.420;10.640;2023-06-24T12:42:11;25.00;99.90
40151;DHT22;25866;52.420;10.640;2023-06-24T12:44:37;25.00;99.90
40151;DHT22;25866;52.420;10.640;2023-06-24T12:47:09;24.80;99.90
40151;DHT22;25866;52.420;10.640;2023-06-24T12:49:35;24.90;99.90
40151;DHT22;25866;52.420;10.640;2023-06-24T12:52:01;25.00;99.90
40151;DHT22;25866;52.420;10.640;2023-06-24T12:54:27;24.90;99.90
40151;DHT22;25866;52.420;10.640;2023-06-24T12:56:53;24.70;99.90
40151;DHT22;25866;52.420;10.640;2023-06-24T12:59:18;24.40;99.00
40151;DHT22;25866;52.420;10.640;2023-06-24T13:01:44;24.30;99.80
40151;DHT22;25866;52.420;10.640;2023-06-24T13:04:11;24.50;99.90
40151;DHT22;25866;52.420;10.640;2023-06-24T13:06:37;24.70;99.90
40151;DHT22;25866;52.420;10.640;2023-06-24T13:09:02;24.80;99.70
40151;DHT22;25866;52.420;10.640;2023-06-24T13:11:28;24.90;99.70
40151;DHT22;25866;52.420;10.640;2023-06-24T13:13:54;24.90;99.80
40151;DHT22;25866;52.420;10.640;2023-06-24T13:16:20;24.60;99.80
40151;DHT22;25866;52.420;10.640;2023-06-24T13:18:46;24.30;99.90
40151;DHT22;25866;52.420;10.640;2023-06-24T13:21:12;24.10;99.90
40151;DHT22;25866;52.420;10.640;2023-06-24T13:23:39;24.20;99.90
40151;DHT22;25866;52.420;10.640;2023-06-24T13:26:06;24.70;99.90
40151;DHT22;25866;52.420;10.640;2023-06-24T13:28:31;25.20;99.90
40151;DHT22;25866;52.420;10.640;2023-06-24T13:30:57;25.50;99.90
40151;DHT22;25866;52.420;10.640;2023-06-24T13:33:23;25.30;99.90
40151;DHT22;25866;52.420;10.640;2023-06-24T13:35:49;25.00;99.90
40151;DHT22;25866;52.420;10.640;2023-06-24T13:38:15;25.10;99.90
40151;DHT22;25866;52.420;10.640;2023-06-24T13:40:41;25.20;99.90
40151;DHT22;25866;52.420;10.640;2023-06-24T13:43:06;25.20;99.90
40151;DHT22;25866;52.420;10.640;2023-06-24T13:45:32;25.10;99.90
40151;DHT22;25866;52.420;10.640;2023-06-24T13:48:00;25.00;99.90
40151;DHT22;25866;52.420;10.640;2023-06-24T13:50:25;25.00;99.90
40151;DHT22;25866;52.420;10.640;2023-06-24T13:52:51;25.00;99.90
40151;DHT22;25866;52.420;10.640;2023-06-24T13:55:16;24.80;99.90
40151;DHT22;25866;52.420;10.640;2023-06-24T13:57:42;24.70;99.90
40151;DHT22;25866;52.420;10.640;2023-06-24T14:00:08;24.50;99.90
40151;DHT22;25866;52.420;10.640;2023-06-24T14:02:34;24.50;99.90
40151;DHT22;25866;52.420;10.640;2023-06-24T14:05:00;24.60;99.90
40151;DHT22;25866;52.420;10.640;2023-06-24T14:07:26;24.80;99.20
40151;DHT22;25866;52.420;10.640;2023-06-24T14:09:53;25.10;99.20
40151;DHT22;25866;52.420;10.640;2023-06-24T14:12:18;25.50;97.70
40151;DHT22;25866;52.420;10.640;2023-06-24T14:14:44;25.60;99.80
40151;DHT22;25866;52.420;10.640;2023-06-24T14:17:10;25.60;99.90
40151;DHT22;25866;52.420;10.640;2023-06-24T14:19:38;25.40;99.40
40151;DHT22;25866;52.420;10.640;2023-06-24T14:22:04;25.00;99.90
40151;DHT22;25866;52.420;10.640;2023-06-24T14:24:31;25.00;99.90
40151;DHT22;25866;52.420;10.640;2023-06-24T14:26:56;25.00;99.90
40151;DHT22;25866;52.420;10.640;2023-06-24T14:29:22;25.30;99.90
40151;DHT22;25866;52.420;10.640;2023-06-24T14:31:48;25.70;99.90
40151;DHT22;25866;52.420;10.640;2023-06-24T14:34:14;26.00;99.00
40151;DHT22;25866;52.420;10.640;2023-06-24T14:36:40;26.30;99.90
40151;DHT22;25866;52.420;10.640;2023-06-24T14:39:14;26.30;99.90
40151;DHT22;25866;52.420;10.640;2023-06-24T14:41:41;26.30;99.90
40151;DHT22;25866;52.420;10.640;2023-06-24T14:44:06;26.50;99.90
40151;DHT22;25866;52.420;10.640;2023-06-24T14:46:32;26.70;99.90
40151;DHT22;25866;52.420;10.640;2023-06-24T14:48:57;26.90;99.90
40151;DHT22;25866;52.420;10.640;2023-06-24T14:51:24;26.90;98.40
40151;DHT22;25866;52.420;10.640;2023-06-24T14:53:50;26.60;97.10
40151;DHT22;25866;52.420;10.640;2023-06-24T14:56:16;26.20;98.60
40151;DHT22;25866;52.420;10.640;2023-06-24T14:58:43;25.90;99.90
40151;DHT22;25866;52.420;10.640;2023-06-24T15:01:08;25.60;99.90
40151;DHT22;25866;52.420;10.640;2023-06-24T15:03:34;25.30;99.90
40151;DHT22;25866;52.420;10.640;2023-06-24T15:06:00;25.00;99.90
40151;DHT22;25866;52.420;10.640;2023-06-24T15:08:26;24.80;99.90
40151;DHT22;25866;52.420;10.640;2023-06-24T15:10:52;24.60;99.90
40151;DHT22;25866;52.420;10.640;2023-06-24T15:13:18;24.50;99.90
40151;DHT22;25866;52.420;10.640;2023-06-24T15:15:44;24.70;98.80
40151;DHT22;25866;52.420;10.640;2023-06-24T15:18:10;25.10;99.90
40151;DHT22;25866;52.420;10.640;2023-06-24T15:20:41;25.60;97.90
40151;DHT22;25866;52.420;10.640;2023-06-24T15:23:06;25.90;98.80
40151;DHT22;25866;52.420;10.640;2023-06-24T15:25:32;26.20;99.30
40151;DHT22;25866;52.420;10.640;2023-06-24T15:27:58;26.20;98.50
40151;DHT22;25866;52.420;10.640;2023-06-24T15:30:25;26.00;96.00
40151;DHT22;25866;52.420;10.640;2023-06-24T15:32:52;25.90;97.30